Time;durP1;ratioP1;P1;durP2;ratioP2;P2;SDS_P1;SDS_P2;PMS_P1;PMS_P2;Temp;Humidity;BMP_temperature;BMP_pressure;BME280_temperature;BME280_humidity;BME280_pressure;Samples;Min_cycle;Max_cycle;Signal;HPM_P1;HPM_P2
2022/09/24 00:00:50;;;;;;;4.23;2.63;;;17.10;96.30;;;;;;5051226;28;20761;-79
2022/09/24 00:03:18;;;;;;;7.17;2.73;;;17.10;96.30;;;;;;5050354;28;20595;-78
2022/09/24 00:05:45;;;;;;;5.70;2.70;;;17.10;96.40;;;;;;5050173;28;20568;-79
2022/09/24 00:08:12;;;;;;;3.00;2.67;;;17.00;96.40;;;;;;5050394;28;20633;-78
2022/09/24 00:10:39;;;;;;;3.17;2.53;;;17.00;96.60;;;;;;5051349;28;21137;-78
2022/09/24 00:13:06;;;;;;;3.83;3.17;;;17.00;96.70;;;;;;5051580;28;21197;-79
2022/09/24 00:15:44;;;;;;;4.77;2.53;;;16.90;96.80;;;;;;5051414;28;20578;-79
2022/09/24 00:18:11;;;;;;;4.47;3.30;;;16.90;97.10;;;;;;5050440;28;20583;-79
2022/09/24 00:20:38;;;;;;;4.93;3.07;;;16.90;96.90;;;;;;5049966;28;20572;-78
2022/09/24 00:23:05;;;;;;;3.13;2.70;;;16.90;97.10;;;;;;5051413;28;21232;-79
2022/09/24 00:28:15;;;;;;;3.50;3.20;;;16.80;97.20;;;;;;5055446;28;20670;-78
2022/09/24 00:30:43;;;;;;;4.73;3.20;;;16.80;97.20;;;;;;5053979;28;20583;-78
2022/09/24 00:33:09;;;;;;;5.43;3.13;;;16.70;97.20;;;;;;5053932;28;20660;-78
2022/09/24 00:35:36;;;;;;;4.53;3.03;;;16.70;97.40;;;;;;5055452;28;20975;-78
2022/09/24 00:38:04;;;;;;;6.00;3.63;;;16.70;97.50;;;;;;5055505;28;20568;-78
2022/09/24 00:40:33;;;;;;;3.50;2.93;;;16.70;97.70;;;;;;5054804;28;20568;-78
2022/09/24 00:42:59;;;;;;;5.73;3.43;;;16.70;97.80;;;;;;5053774;28;20692;-78
2022/09/24 00:45:28;;;;;;;3.70;2.90;;;16.70;97.90;;;;;;5055337;28;20576;-78
2022/09/24 00:47:54;;;;;;;4.97;3.23;;;16.70;98.10;;;;;;5055229;28;20662;-78
2022/09/24 00:50:30;;;;;;;6.20;4.10;;;16.60;98.50;;;;;;5054806;28;21161;-77
2022/09/24 00:53:00;;;;;;;5.30;3.13;;;16.60;98.50;;;;;;5072464;23;21151;-77
2022/09/24 00:55:27;;;;;;;5.80;3.50;;;16.60;98.40;;;;;;5034934;28;20634;-77
2022/09/24 00:57:56;;;;;;;5.10;3.40;;;16.60;98.50;;;;;;5034771;28;20564;-77
2022/09/24 01:00:22;;;;;;;7.20;3.03;;;16.60;98.60;;;;;;5034699;28;20614;-74
2022/09/24 01:02:54;;;;;;;3.47;2.20;;;16.60;98.60;;;;;;5034580;28;20627;-75
2022/09/24 01:05:19;;;;;;;6.93;3.40;;;16.50;98.70;;;;;;5034900;28;20607;-77
2022/09/24 01:07:48;;;;;;;6.70;3.83;;;16.50;98.80;;;;;;5035003;28;20201;-78
2022/09/24 01:10:46;;;;;;;6.63;3.53;;;16.50;99.00;;;;;;5016730;28;20618;-74
2022/09/24 01:13:16;;;;;;;4.07;2.70;;;16.40;99.50;;;;;;5016466;28;21017;-75
2022/09/24 01:15:51;;;;;;;6.53;3.27;;;16.40;99.60;;;;;;5016747;28;20567;-74
2022/09/24 01:18:41;;;;;;;5.18;3.65;;;16.40;99.60;;;;;;5034469;28;20659;-74
2022/09/24 01:21:19;;;;;;;5.17;3.43;;;16.40;99.80;;;;;;5034127;28;20189;-75
2022/09/24 01:24:02;;;;;;;3.97;3.00;;;16.40;99.60;;;;;;5034273;28;20649;-75
2022/09/24 01:26:55;;;;;;;6.10;4.20;;;16.40;99.90;;;;;;5034441;28;20556;-75
2022/09/24 01:29:40;;;;;;;4.17;3.70;;;16.40;99.90;;;;;;4985645;28;21123;-75
2022/09/24 01:32:26;;;;;;;4.93;3.50;;;16.40;99.90;;;;;;5034136;28;20572;-74
2022/09/24 01:34:57;;;;;;;4.67;3.10;;;16.40;99.90;;;;;;5034202;28;20600;-75
2022/09/24 01:37:27;;;;;;;5.57;3.70;;;16.40;99.90;;;;;;5034056;28;20565;-74
2022/09/24 01:39:55;;;;;;;4.13;3.13;;;16.40;99.90;;;;;;5015996;28;20565;-74
2022/09/24 01:42:22;;;;;;;6.67;2.93;;;16.40;99.90;;;;;;5033817;28;20975;-75
2022/09/24 01:44:49;;;;;;;3.70;3.23;;;16.40;99.90;;;;;;5034002;28;20599;-75
2022/09/24 01:47:38;;;;;;;5.27;3.17;;;16.40;99.90;;;;;;5016166;28;20574;-75
2022/09/24 01:50:10;;;;;;;4.23;3.50;;;16.40;99.90;;;;;;5015818;28;20571;-75
2022/09/24 01:52:54;;;;;;;4.57;3.37;;;16.40;99.90;;;;;;5033609;28;20730;-75
2022/09/24 01:55:25;;;;;;;4.13;3.30;;;16.30;99.90;;;;;;5033722;28;20714;-75
2022/09/24 01:58:26;;;;;;;6.50;3.77;;;16.30;99.90;;;;;;5016059;28;20630;-75
2022/09/24 02:00:57;;;;;;;4.50;3.40;;;16.30;99.90;;;;;;4999089;28;20663;-75
2022/09/24 02:03:30;;;;;;;4.20;3.23;;;16.30;99.90;;;;;;5033477;28;20611;-75
2022/09/24 02:06:04;;;;;;;5.90;3.63;;;16.30;99.90;;;;;;5034686;28;20549;-74
2022/09/24 02:08:36;;;;;;;5.73;3.57;;;16.30;99.90;;;;;;5033646;28;20571;-75
2022/09/24 02:11:13;;;;;;;3.77;2.90;;;16.30;99.90;;;;;;5033494;28;20564;-75
2022/09/24 02:13:47;;;;;;;3.33;2.70;;;16.30;99.90;;;;;;5033359;28;20687;-75
2022/09/24 02:16:15;;;;;;;6.07;4.13;;;16.30;99.90;;;;;;5033523;28;20764;-74
2022/09/24 02:18:45;;;;;;;6.73;3.40;;;16.40;99.90;;;;;;5033307;28;20932;-74
2022/09/24 02:21:14;;;;;;;4.77;3.70;;;16.40;99.90;;;;;;5015175;28;21035;-75
2022/09/24 02:23:46;;;;;;;6.67;3.57;;;16.40;99.90;;;;;;5015277;28;20603;-74
2022/09/24 02:26:12;;;;;;;4.57;3.70;;;16.40;99.90;;;;;;5015480;28;20898;-74
2022/09/24 02:28:40;;;;;;;3.70;3.23;;;16.30;99.90;;;;;;5015461;28;20606;-75
2022/09/24 02:31:13;;;;;;;4.60;3.30;;;16.40;99.90;;;;;;5032717;28;20572;-75
2022/09/24 02:36:28;;;;;;;5.90;4.40;;;16.30;99.90;;;;;;5033111;28;20553;-75
2022/09/24 02:38:54;;;;;;;5.23;3.30;;;16.30;99.90;;;;;;5032970;28;20597;-74
2022/09/24 02:41:23;;;;;;;3.90;3.00;;;16.30;99.90;;;;;;5032579;28;21159;-74
2022/09/24 02:43:49;;;;;;;4.10;3.00;;;16.30;99.90;;;;;;5016151;28;21146;-74
2022/09/24 02:46:15;;;;;;;3.30;3.00;;;16.30;99.90;;;;;;5032839;28;20560;-74
2022/09/24 02:48:41;;;;;;;4.23;3.77;;;16.20;99.90;;;;;;5032781;28;20923;-74
2022/09/24 02:51:07;;;;;;;4.80;3.70;;;16.20;99.90;;;;;;5031937;28;20574;-74
2022/09/24 02:53:33;;;;;;;4.17;3.77;;;16.10;99.90;;;;;;5032509;28;20205;-74
2022/09/24 02:56:00;;;;;;;4.30;3.57;;;16.10;99.90;;;;;;5032736;28;20571;-74
2022/09/24 02:58:28;;;;;;;5.47;3.30;;;16.10;99.90;;;;;;5014771;28;20931;-74
2022/09/24 03:00:55;;;;;;;4.97;3.70;;;16.00;99.90;;;;;;5014560;28;20614;-74
2022/09/24 03:03:22;;;;;;;3.90;3.50;;;16.00;99.90;;;;;;5014679;28;20942;-74
2022/09/24 03:05:53;;;;;;;5.43;4.37;;;15.90;99.90;;;;;;5032345;28;20577;-75
2022/09/24 03:08:23;;;;;;;4.77;4.10;;;15.90;99.90;;;;;;5032436;28;20567;-74
2022/09/24 03:10:50;;;;;;;4.80;3.50;;;15.90;99.90;;;;;;5032049;28;20579;-74
2022/09/24 03:13:18;;;;;;;7.43;4.60;;;15.80;99.90;;;;;;5014512;28;21163;-74
2022/09/24 03:15:45;;;;;;;5.10;3.27;;;15.80;99.90;;;;;;5032283;28;20928;-74
2022/09/24 03:18:11;;;;;;;4.60;3.90;;;15.80;99.90;;;;;;5032226;28;20565;-74
2022/09/24 03:20:37;;;;;;;6.00;5.13;;;15.80;99.90;;;;;;5037849;28;21108;-73
2022/09/24 03:23:03;;;;;;;6.77;4.60;;;15.70;99.90;;;;;;5031878;28;20603;-73
2022/09/24 03:25:29;;;;;;;3.63;3.23;;;15.70;99.90;;;;;;5032053;28;20177;-73
2022/09/24 03:27:55;;;;;;;5.80;3.87;;;15.70;99.90;;;;;;5032029;28;20528;-73
2022/09/24 03:33:05;;;;;;;4.50;3.50;;;15.70;99.90;;;;;;5031760;28;20592;-75
2022/09/24 03:35:31;;;;;;;4.70;3.80;;;15.70;99.90;;;;;;5031823;28;20556;-74
2022/09/24 03:37:57;;;;;;;7.23;4.83;;;15.70;99.90;;;;;;5031990;28;20197;-74
2022/09/24 03:40:23;;;;;;;4.00;3.27;;;15.70;99.90;;;;;;5031744;28;20569;-74
2022/09/24 03:42:49;;;;;;;7.40;4.17;;;15.80;99.90;;;;;;5031420;28;20198;-75
2022/09/24 03:45:15;;;;;;;5.13;4.13;;;15.80;99.90;;;;;;5031775;28;20575;-74
2022/09/24 03:47:41;;;;;;;4.97;4.20;;;15.80;99.90;;;;;;5031913;28;20165;-74
2022/09/24 03:50:10;;;;;;;4.87;3.87;;;15.80;99.90;;;;;;5031534;28;20170;-74
2022/09/24 03:52:39;;;;;;;5.00;4.50;;;15.80;99.90;;;;;;5031536;28;20576;-74
2022/09/24 03:55:06;;;;;;;4.73;3.50;;;15.80;99.90;;;;;;5031669;28;20256;-74
2022/09/24 03:57:32;;;;;;;6.27;4.13;;;15.70;99.90;;;;;;5040895;28;20580;-74
2022/09/24 03:59:58;;;;;;;7.53;3.87;;;15.70;99.90;;;;;;5031280;28;20560;-74
2022/09/24 04:02:24;;;;;;;6.20;4.30;;;15.70;99.90;;;;;;5012823;28;20608;-75
2022/09/24 04:04:51;;;;;;;5.60;3.73;;;15.60;99.90;;;;;;5031512;28;20588;-74
2022/09/24 04:07:16;;;;;;;7.10;4.90;;;15.60;99.90;;;;;;5013935;28;20591;-74
2022/09/24 04:09:42;;;;;;;7.00;4.20;;;15.60;99.90;;;;;;4997185;28;20619;-74
2022/09/24 04:12:08;;;;;;;4.67;3.97;;;15.60;99.90;;;;;;5031321;28;20573;-75
2022/09/24 04:14:34;;;;;;;5.27;3.87;;;15.60;99.90;;;;;;5013841;28;20185;-74
2022/09/24 04:16:59;;;;;;;5.80;4.17;;;15.50;99.90;;;;;;5013588;28;20185;-74
2022/09/24 04:19:30;;;;;;;5.77;3.90;;;15.50;99.90;;;;;;5013554;28;20174;-75
2022/09/24 04:21:56;;;;;;;5.13;3.65;;;15.50;99.90;;;;;;5031224;28;20241;-74
2022/09/24 04:24:22;;;;;;;7.23;5.03;;;15.60;99.90;;;;;;5031260;28;20247;-74
2022/09/24 04:26:49;;;;;;;4.03;3.63;;;15.60;99.90;;;;;;5031287;28;20565;-74
2022/09/24 04:29:15;;;;;;;6.70;3.97;;;15.50;99.90;;;;;;5031124;28;20165;-74
2022/09/24 04:31:40;;;;;;;4.80;3.60;;;15.50;99.90;;;;;;5031210;28;20572;-74
2022/09/24 04:34:08;;;;;;;7.00;4.20;;;15.50;99.90;;;;;;5033664;28;20608;-74
2022/09/24 04:36:34;;;;;;;4.90;3.70;;;15.60;99.90;;;;;;5031319;28;20694;-74
2022/09/24 04:39:02;;;;;;;4.50;3.13;;;15.60;99.90;;;;;;5031308;28;20607;-73
2022/09/24 04:41:28;;;;;;;4.07;3.55;;;15.60;99.90;;;;;;5030862;28;20263;-73
2022/09/24 04:43:55;;;;;;;7.13;4.10;;;15.60;99.90;;;;;;5030984;28;20186;-74
2022/09/24 04:46:20;;;;;;;4.57;3.80;;;15.60;99.90;;;;;;4997257;28;20572;-74
2022/09/24 04:48:46;;;;;;;6.20;3.70;;;15.60;99.90;;;;;;5031286;28;20162;-74
2022/09/24 04:51:12;;;;;;;4.93;4.00;;;15.50;99.90;;;;;;5013135;28;20522;-74
2022/09/24 04:53:38;;;;;;;4.40;3.70;;;15.50;99.90;;;;;;5013131;28;20259;-74
2022/09/24 04:56:10;;;;;;;4.20;3.80;;;15.40;99.90;;;;;;5031156;28;20539;-74
2022/09/24 04:58:37;;;;;;;6.13;4.85;;;15.30;99.90;;;;;;5031146;28;20564;-74
2022/09/24 05:01:03;;;;;;;6.20;3.60;;;15.30;99.90;;;;;;4996573;28;20303;-74
2022/09/24 05:03:29;;;;;;;4.60;4.20;;;15.30;99.90;;;;;;5013168;28;20272;-74
2022/09/24 05:05:55;;;;;;;7.13;4.60;;;15.30;99.90;;;;;;5031058;28;20170;-74
2022/09/24 05:08:21;;;;;;;5.07;3.27;;;15.20;99.90;;;;;;5031116;28;20655;-74
2022/09/24 05:10:47;;;;;;;6.93;5.00;;;15.20;99.90;;;;;;5032470;28;20575;-74
2022/09/24 05:13:13;;;;;;;6.50;4.00;;;15.20;99.90;;;;;;4999014;28;20703;-74
2022/09/24 05:15:39;;;;;;;4.33;2.90;;;15.20;99.90;;;;;;5034710;28;20201;-75
2022/09/24 05:18:05;;;;;;;8.50;4.03;;;15.20;99.90;;;;;;5034537;28;20622;-74
2022/09/24 05:20:31;;;;;;;3.87;3.30;;;15.20;99.90;;;;;;5016519;28;20989;-74
2022/09/24 05:22:57;;;;;;;5.28;3.58;;;15.10;99.90;;;;;;5034299;28;20623;-74
2022/09/24 05:25:23;;;;;;;3.93;3.53;;;15.10;99.90;;;;;;5016722;28;20177;-74
2022/09/24 05:27:50;;;;;;;3.70;3.30;;;15.00;99.90;;;;;;5000231;28;20177;-74
2022/09/24 05:30:18;;;;;;;3.80;3.28;;;15.00;99.90;;;;;;5034047;28;20659;-75
2022/09/24 05:32:44;;;;;;;6.45;4.95;;;15.00;99.90;;;;;;5016567;28;20166;-74
2022/09/24 05:35:09;;;;;;;5.00;3.23;;;15.00;99.90;;;;;;5034283;28;20188;-74
2022/09/24 05:37:37;;;;;;;4.80;3.35;;;15.00;99.90;;;;;;5016341;28;20169;-76
2022/09/24 05:42:49;;;;;;;3.50;2.63;;;15.00;99.90;;;;;;5033803;28;20563;-74
2022/09/24 05:45:16;;;;;;;4.07;3.63;;;14.90;99.90;;;;;;5016358;28;20161;-74
2022/09/24 05:47:44;;;;;;;3.63;3.28;;;15.00;99.90;;;;;;5034824;28;20927;-75
2022/09/24 05:50:11;;;;;;;3.78;3.38;;;15.00;99.90;;;;;;5017815;28;20224;-75
2022/09/24 05:52:38;;;;;;;4.33;3.93;;;15.00;99.90;;;;;;5033625;28;20169;-74
2022/09/24 05:55:05;;;;;;;3.10;2.73;;;15.00;99.90;;;;;;5015963;28;21276;-75
2022/09/24 05:57:33;;;;;;;5.68;2.80;;;15.00;99.90;;;;;;5016084;28;20588;-74
2022/09/24 05:59:58;;;;;;;3.75;3.30;;;15.10;99.90;;;;;;5015887;28;20208;-74
2022/09/24 06:02:24;;;;;;;4.70;3.20;;;15.10;99.90;;;;;;5033469;28;20236;-74
2022/09/24 06:04:50;;;;;;;5.47;3.77;;;15.10;99.90;;;;;;5033678;28;20945;-75
2022/09/24 06:07:16;;;;;;;4.17;3.77;;;15.20;99.90;;;;;;5033821;28;20296;-76
2022/09/24 06:09:41;;;;;;;5.63;3.63;;;15.20;99.90;;;;;;5033702;28;20165;-75
2022/09/24 06:12:09;;;;;;;4.20;3.37;;;15.20;99.90;;;;;;5033242;28;20174;-75
2022/09/24 06:14:35;;;;;;;4.23;3.63;;;15.30;99.90;;;;;;5033387;28;20198;-75
2022/09/24 06:17:01;;;;;;;4.63;3.27;;;15.30;99.90;;;;;;5033472;28;20575;-75
2022/09/24 06:19:27;;;;;;;6.27;4.03;;;15.40;99.90;;;;;;5015322;28;20675;-74
2022/09/24 06:21:53;;;;;;;8.47;3.97;;;15.40;99.90;;;;;;5033086;28;20616;-74
2022/09/24 06:24:19;;;;;;;6.47;4.40;;;15.50;99.90;;;;;;5032841;28;20673;-74
2022/09/24 06:26:45;;;;;;;4.73;3.93;;;15.50;99.90;;;;;;5019243;28;20169;-74
2022/09/24 06:29:11;;;;;;;5.40;4.30;;;15.50;99.90;;;;;;5014920;28;20165;-75
2022/09/24 06:31:37;;;;;;;4.20;3.50;;;15.50;99.90;;;;;;5032803;28;20604;-73
2022/09/24 06:34:03;;;;;;;6.27;4.07;;;15.50;99.90;;;;;;5015010;28;20193;-75
2022/09/24 06:36:28;;;;;;;5.53;4.00;;;15.60;99.90;;;;;;5032984;28;20253;-74
2022/09/24 06:38:54;;;;;;;4.70;4.00;;;15.70;99.90;;;;;;5032987;28;20174;-74
2022/09/24 06:41:21;;;;;;;7.40;3.70;;;15.70;99.90;;;;;;5014893;28;20565;-74
2022/09/24 06:43:47;;;;;;;10.03;4.70;;;15.80;99.90;;;;;;5032805;28;20239;-76
2022/09/24 06:46:14;;;;;;;4.57;4.00;;;15.80;99.90;;;;;;5015362;28;20660;-76
2022/09/24 06:48:41;;;;;;;6.33;4.77;;;15.80;99.90;;;;;;5032838;28;20166;-75
2022/09/24 06:51:07;;;;;;;5.37;4.17;;;15.90;99.90;;;;;;5032264;28;20618;-75
2022/09/24 06:53:33;;;;;;;6.03;4.17;;;15.90;99.90;;;;;;5015275;28;20710;-75
2022/09/24 06:56:02;;;;;;;5.83;5.20;;;15.90;99.90;;;;;;5069710;23;20216;-85
2022/09/24 06:58:28;;;;;;;6.60;4.50;;;15.80;99.90;;;;;;5054098;28;21142;-85
2022/09/24 07:00:57;;;;;;;6.80;4.50;;;15.80;99.90;;;;;;5055604;28;20665;-86
2022/09/24 07:03:24;;;;;;;8.53;5.20;;;15.80;99.90;;;;;;5054635;28;20587;-85
2022/09/24 07:05:50;;;;;;;4.77;4.27;;;15.80;99.90;;;;;;5056044;28;20600;-85
2022/09/24 07:08:16;;;;;;;5.50;4.53;;;15.90;99.90;;;;;;5053336;28;20579;-85
2022/09/24 07:10:48;;;;;;;7.27;5.13;;;16.00;99.90;;;;;;5052867;28;20172;-86
2022/09/24 07:13:14;;;;;;;7.10;4.50;;;15.90;99.90;;;;;;5051843;28;20576;-86
2022/09/24 07:15:41;;;;;;;6.50;3.80;;;15.90;99.90;;;;;;5051909;28;20754;-86
2022/09/24 07:18:08;;;;;;;5.80;4.10;;;15.90;99.90;;;;;;5052709;28;20618;-86
2022/09/24 07:20:35;;;;;;;4.93;4.33;;;15.90;99.90;;;;;;5051522;28;20595;-86
2022/09/24 07:23:03;;;;;;;6.20;4.77;;;15.90;99.90;;;;;;5053976;28;20907;-87
2022/09/24 07:25:29;;;;;;;5.47;4.87;;;15.90;99.90;;;;;;5056133;28;20984;-87
2022/09/24 07:27:58;;;;;;;7.33;4.50;;;15.90;99.90;;;;;;5055940;28;20560;-86
2022/09/24 07:30:24;;;;;;;5.82;4.28;;;15.90;99.90;;;;;;5043239;28;20267;-86
2022/09/24 07:32:54;;;;;;;4.83;4.30;;;15.90;99.90;;;;;;5055157;28;20667;-86
2022/09/24 07:35:20;;;;;;;4.73;4.20;;;16.00;99.90;;;;;;5057598;28;20557;-86
2022/09/24 07:37:45;;;;;;;8.50;4.10;;;16.00;99.90;;;;;;5055576;28;20572;-85
2022/09/24 07:40:11;;;;;;;5.63;4.47;;;16.10;99.90;;;;;;5052675;28;20176;-85
2022/09/24 07:42:37;;;;;;;9.00;5.37;;;16.10;99.90;;;;;;5053665;28;20196;-86
2022/09/24 07:45:04;;;;;;;5.70;4.77;;;16.20;99.90;;;;;;5052780;28;20683;-86
2022/09/24 07:47:29;;;;;;;4.90;4.07;;;16.30;99.90;;;;;;5052706;28;20567;-85
2022/09/24 07:49:55;;;;;;;5.43;4.80;;;16.40;99.90;;;;;;5054395;28;20571;-85
2022/09/24 07:52:21;;;;;;;6.27;5.03;;;16.50;99.90;;;;;;5054625;28;20172;-85
2022/09/24 07:54:47;;;;;;;7.30;5.67;;;16.60;99.90;;;;;;5053522;28;20247;-85
2022/09/24 07:57:12;;;;;;;6.27;5.10;;;16.70;99.90;;;;;;5053906;28;20322;-86
2022/09/24 07:59:39;;;;;;;5.13;4.20;;;16.80;99.90;;;;;;5054418;28;20180;-85
2022/09/24 08:02:14;;;;;;;7.13;4.60;;;16.80;99.90;;;;;;5052972;28;20220;-87
2022/09/24 08:04:40;;;;;;;5.00;4.50;;;17.00;99.90;;;;;;5053799;28;21249;-87
2022/09/24 08:07:06;;;;;;;6.50;4.73;;;17.10;99.90;;;;;;5061334;28;20905;-86
2022/09/24 08:09:32;;;;;;;4.47;4.07;;;17.10;99.90;;;;;;5059057;28;20571;-84
2022/09/24 08:11:58;;;;;;;7.97;5.10;;;17.10;99.90;;;;;;5059158;28;20176;-84
2022/09/24 08:14:24;;;;;;;8.10;4.17;;;17.20;99.90;;;;;;5060322;28;20942;-84
2022/09/24 08:16:50;;;;;;;5.13;4.53;;;17.20;99.90;;;;;;5061642;28;20594;-85
2022/09/24 08:19:15;;;;;;;10.30;5.10;;;17.20;99.90;;;;;;5061164;28;20595;-86
2022/09/24 08:21:41;;;;;;;6.13;4.50;;;17.30;99.90;;;;;;5061517;28;20193;-85
2022/09/24 08:24:07;;;;;;;5.80;4.60;;;17.50;99.90;;;;;;5060769;28;20177;-85
2022/09/24 08:26:33;;;;;;;4.60;3.90;;;17.60;99.90;;;;;;5060206;28;20606;-85
2022/09/24 08:28:59;;;;;;;5.77;4.47;;;17.90;99.90;;;;;;5064193;28;20169;-85
2022/09/24 08:31:25;;;;;;;7.00;4.80;;;18.00;99.90;;;;;;5062805;28;20157;-85
2022/09/24 08:33:51;;;;;;;6.17;4.90;;;18.20;99.90;;;;;;5061637;28;20193;-85
2022/09/24 08:36:17;;;;;;;9.97;4.40;;;18.40;99.90;;;;;;5061982;28;20610;-85
2022/09/24 08:38:43;;;;;;;7.43;4.73;;;18.60;99.90;;;;;;5060728;28;20185;-85
2022/09/24 08:41:12;;;;;;;5.10;4.60;;;19.10;99.90;;;;;;5055701;28;20618;-86
2022/09/24 08:43:57;;;;;;;6.20;5.00;;;19.50;99.90;;;;;;5058369;28;20671;-86
2022/09/24 08:49:40;;;;;;;7.63;4.70;;;20.30;99.90;;;;;;5057099;28;20609;-86
2022/09/24 08:52:24;;;;;;;9.93;5.30;;;20.80;99.90;;;;;;5058963;28;20674;-86
2022/09/24 08:54:51;;;;;;;6.87;4.83;;;21.10;99.90;;;;;;5057320;28;20637;-86
2022/09/24 08:57:19;;;;;;;5.93;5.33;;;21.40;99.90;;;;;;5059644;28;20571;-86
2022/09/24 08:59:50;;;;;;;5.57;4.87;;;21.50;99.90;;;;;;5067994;28;20575;-86
2022/09/24 09:02:22;;;;;;;5.67;4.87;;;21.70;99.90;;;;;;5065040;28;20611;-85
2022/09/24 09:04:56;;;;;;;6.00;5.20;;;21.90;99.90;;;;;;5064926;28;21051;-86
2022/09/24 09:07:38;;;;;;;6.80;5.53;;;22.00;99.90;;;;;;5058747;28;20621;-87
2022/09/24 09:10:15;;;;;;;7.50;6.80;;;22.00;99.90;;;;;;5056875;28;20663;-87
2022/09/24 09:12:53;;;;;;;6.47;5.80;;;22.20;99.90;;;;;;5054599;28;20587;-86
2022/09/24 09:15:24;;;;;;;7.13;5.57;;;22.10;99.90;;;;;;5057185;28;20598;-87
2022/09/24 09:18:18;;;;;;;7.30;5.73;;;22.10;99.90;;;;;;5057702;28;20621;-86
2022/09/24 09:20:46;;;;;;;7.47;5.50;;;22.10;99.90;;;;;;5060615;28;20563;-86
2022/09/24 09:23:25;;;;;;;7.60;5.70;;;22.10;99.90;;;;;;5055875;28;20912;-87
2022/09/24 09:25:58;;;;;;;6.90;6.20;;;22.10;99.90;;;;;;5056041;28;21177;-87
2022/09/24 09:28:28;;;;;;;7.17;6.47;;;22.30;99.90;;;;;;5054161;28;20597;-87
2022/09/24 09:31:10;;;;;;;8.70;7.60;;;22.50;99.90;;;;;;5053569;28;20583;-86
2022/09/24 09:33:58;;;;;;;7.57;6.47;;;22.70;99.90;;;;;;5055471;28;20582;-86
2022/09/24 09:36:36;;;;;;;7.07;6.40;;;23.00;99.90;;;;;;5059607;28;21166;-86
2022/09/24 09:39:11;;;;;;;7.83;6.37;;;23.30;99.90;;;;;;5058942;28;20571;-86
2022/09/24 09:41:51;;;;;;;7.77;6.50;;;23.60;99.90;;;;;;5055022;28;20618;-86
2022/09/24 09:44:28;;;;;;;6.70;6.00;;;23.60;99.90;;;;;;5055651;28;20570;-86
2022/09/24 09:47:08;;;;;;;8.40;6.30;;;23.50;99.90;;;;;;5055542;28;20567;-86
2022/09/24 09:49:37;;;;;;;8.50;5.90;;;23.30;99.90;;;;;;5056781;28;20563;-85
2022/09/24 09:52:14;;;;;;;12.17;6.60;;;23.20;99.90;;;;;;5056139;28;20582;-86
2022/09/24 09:54:43;;;;;;;7.33;6.60;;;23.20;99.70;;;;;;5056953;28;20571;-86
2022/09/24 09:57:20;;;;;;;8.43;6.10;;;23.10;99.70;;;;;;5065712;28;20579;-86
2022/09/24 09:59:51;;;;;;;7.17;5.90;;;22.90;99.20;;;;;;5057993;28;20678;-86
2022/09/24 10:02:26;;;;;;;6.33;5.73;;;22.70;99.30;;;;;;5057042;28;20626;-85
2022/09/24 10:04:57;;;;;;;9.70;7.07;;;22.70;99.40;;;;;;5064985;28;20984;-86
2022/09/24 10:07:23;;;;;;;8.17;6.20;;;22.60;99.20;;;;;;5074884;28;20570;-86
2022/09/24 10:10:24;;;;;;;7.43;6.60;;;22.40;99.10;;;;;;5057502;28;20563;-86
2022/09/24 10:13:07;;;;;;;9.80;7.43;;;22.30;99.00;;;;;;5055519;28;21128;-86
2022/09/24 10:15:38;;;;;;;8.67;7.53;;;22.30;99.10;;;;;;5056141;28;20603;-86
2022/09/24 10:18:04;;;;;;;13.37;7.40;;;22.10;99.20;;;;;;5055728;28;20563;-86
2022/09/24 10:20:32;;;;;;;8.67;7.77;;;22.10;99.30;;;;;;5056571;28;20560;-86
2022/09/24 10:23:05;;;;;;;8.77;7.97;;;22.10;99.30;;;;;;5041193;28;20200;-86
2022/09/24 10:25:33;;;;;;;8.30;7.50;;;22.00;99.20;;;;;;5054585;28;20614;-85
2022/09/24 10:31:04;;;;;;;10.83;7.80;;;21.80;98.90;;;;;;5057183;28;20564;-86
2022/09/24 10:33:38;;;;;;;25.13;8.43;;;21.50;98.70;;;;;;5058280;28;20579;-84
2022/09/24 10:36:11;;;;;;;10.33;8.50;;;21.30;98.80;;;;;;5059558;28;20600;-86
2022/09/24 10:38:37;;;;;;;8.80;7.90;;;21.20;99.00;;;;;;5059476;28;20666;-85
2022/09/24 10:41:24;;;;;;;9.53;7.80;;;21.10;99.10;;;;;;5061281;28;20623;-86
2022/09/24 10:43:55;;;;;;;8.07;7.27;;;21.10;99.30;;;;;;5062778;28;20169;-85
2022/09/24 10:46:30;;;;;;;12.87;9.30;;;21.00;99.10;;;;;;5066372;28;20951;-85
2022/09/24 10:49:07;;;;;;;9.67;8.63;;;20.90;99.30;;;;;;5064352;28;20575;-85
2022/09/24 10:51:50;;;;;;;10.03;9.03;;;20.80;99.30;;;;;;5055544;28;20673;-86
2022/09/24 10:54:40;;;;;;;10.50;8.50;;;20.70;99.40;;;;;;5057463;28;20563;-86
2022/09/24 10:57:24;;;;;;;9.27;8.33;;;20.60;99.70;;;;;;5056536;28;20563;-86
2022/09/24 10:59:53;;;;;;;9.30;8.40;;;20.60;99.90;;;;;;5058510;28;20594;-85
2022/09/24 11:02:38;;;;;;;9.90;8.63;;;20.60;99.90;;;;;;5056724;28;20988;-86
2022/09/24 11:05:11;;;;;;;10.37;9.47;;;20.60;99.90;;;;;;5055316;28;20966;-86
2022/09/24 11:08:02;;;;;;;11.00;9.80;;;20.60;99.90;;;;;;5056610;28;20625;-86
2022/09/24 11:10:48;;;;;;;10.40;9.33;;;20.60;99.90;;;;;;5049640;28;21005;-86
2022/09/24 11:13:39;;;;;;;10.60;8.23;;;20.60;99.90;;;;;;5057757;28;20562;-85
2022/09/24 11:16:43;;;;;;;8.17;7.07;;;20.60;99.90;;;;;;5060762;28;20595;-86
2022/09/24 11:19:32;;;;;;;8.90;8.00;;;20.60;99.90;;;;;;5062363;28;20900;-86
2022/09/24 11:22:20;;;;;;;11.53;10.30;;;20.70;99.90;;;;;;5059064;28;20701;-85
2022/09/24 11:24:57;;;;;;;11.57;9.43;;;20.70;99.90;;;;;;5054208;28;20990;-85
2022/09/24 11:27:53;;;;;;;10.67;9.57;;;20.70;99.90;;;;;;5054231;28;21138;-86
2022/09/24 11:30:46;;;;;;;9.77;8.77;;;20.70;99.90;;;;;;5055208;28;20586;-86
2022/09/24 11:33:44;;;;;;;10.00;7.47;;;20.70;99.90;;;;;;5053213;28;20571;-86
2022/09/24 11:36:44;;;;;;;10.50;7.97;;;20.80;99.90;;;;;;5054454;28;20592;-87
2022/09/24 11:39:27;;;;;;;10.07;7.90;;;20.80;99.90;;;;;;5054245;28;20567;-86
2022/09/24 11:42:21;;;;;;;11.07;9.33;;;20.90;99.90;;;;;;5052649;28;20688;-85
2022/09/24 11:45:11;;;;;;;10.20;8.77;;;21.00;99.90;;;;;;5054288;28;20603;-86
2022/09/24 11:48:18;;;;;;;8.00;6.53;;;21.10;99.90;;;;;;5054302;28;20897;-87
2022/09/24 11:51:13;;;;;;;8.00;7.20;;;21.10;99.90;;;;;;5061074;28;20596;-86
2022/09/24 11:54:02;;;;;;;9.90;8.00;;;21.30;99.90;;;;;;5051977;28;20572;-87
2022/09/24 11:56:41;;;;;;;8.60;7.70;;;21.40;99.90;;;;;;5053138;28;20623;-86
2022/09/24 11:59:31;;;;;;;10.40;7.60;;;21.40;99.90;;;;;;5053758;28;20956;-86
2022/09/24 12:02:32;;;;;;;8.07;6.87;;;21.40;99.90;;;;;;5053187;28;20619;-86
2022/09/24 12:05:14;;;;;;;7.47;6.27;;;21.50;99.30;;;;;;5052514;28;20610;-86
2022/09/24 12:07:52;;;;;;;9.97;8.37;;;21.50;99.90;;;;;;5053874;28;20563;-87
2022/09/24 12:10:28;;;;;;;9.70;7.80;;;21.50;99.60;;;;;;5053464;28;20574;-87
2022/09/24 12:13:14;;;;;;;7.23;6.50;;;21.60;99.60;;;;;;5051492;28;20571;-86
2022/09/24 12:16:21;;;;;;;8.87;6.90;;;21.60;99.80;;;;;;5052216;28;20647;-86
2022/09/24 12:18:54;;;;;;;8.60;7.10;;;21.60;99.70;;;;;;5052824;28;20625;-86
2022/09/24 12:21:26;;;;;;;8.77;7.70;;;21.70;99.60;;;;;;5052471;28;20616;-86
2022/09/24 12:23:58;;;;;;;8.70;6.90;;;21.70;99.20;;;;;;5055403;28;20576;-86
2022/09/24 12:26:26;;;;;;;8.70;7.03;;;21.70;99.50;;;;;;5065610;28;20625;-85
2022/09/24 12:35:06;;;;;;;6.53;5.83;;;21.90;99.20;;;;;;5057053;28;20595;-86
2022/09/24 12:37:38;;;;;;;6.50;5.90;;;22.00;99.40;;;;;;5055396;28;20571;-86
2022/09/24 12:40:25;;;;;;;10.73;7.00;;;22.10;99.40;;;;;;5057099;28;20567;-86
2022/09/24 12:42:56;;;;;;;7.97;6.27;;;22.20;98.60;;;;;;5056094;28;20643;-86
2022/09/24 12:45:24;;;;;;;8.30;6.23;;;22.30;99.10;;;;;;5058820;28;20595;-86
2022/09/24 12:48:00;;;;;;;12.40;8.13;;;22.30;98.70;;;;;;5057571;28;20555;-86
2022/09/24 12:50:29;;;;;;;8.93;7.00;;;22.40;98.60;;;;;;5058650;28;20575;-86
2022/09/24 12:52:56;;;;;;;9.53;7.10;;;22.40;98.50;;;;;;5059085;28;20594;-85
2022/09/24 12:55:32;;;;;;;8.87;7.10;;;22.50;98.50;;;;;;5059459;28;20676;-84
2022/09/24 12:58:00;;;;;;;8.53;7.30;;;22.50;98.30;;;;;;5054345;23;20695;-73
2022/09/24 13:00:42;;;;;;;7.13;6.43;;;22.40;98.10;;;;;;5014922;28;21033;-72
2022/09/24 13:03:44;;;;;;;7.23;6.40;;;22.40;97.90;;;;;;5013758;28;20637;-73
2022/09/24 13:06:28;;;;;;;6.73;5.93;;;22.40;97.20;;;;;;4936135;29;20631;-73
2022/09/24 13:08:54;;;;;;;6.90;5.93;;;22.30;97.40;;;;;;4991012;28;20609;-73
2022/09/24 13:11:36;;;;;;;8.43;5.53;;;22.20;97.60;;;;;;4995203;28;20617;-72
2022/09/24 13:14:11;;;;;;;6.00;5.23;;;22.20;97.30;;;;;;4995457;28;20221;-73
2022/09/24 13:16:39;;;;;;;7.13;5.13;;;22.20;97.50;;;;;;4995322;28;20597;-73
2022/09/24 13:19:24;;;;;;;7.33;5.53;;;22.20;97.80;;;;;;4994120;28;20572;-74
2022/09/24 13:21:58;;;;;;;7.33;6.40;;;22.20;97.80;;;;;;4995110;28;20624;-73
2022/09/24 13:24:35;;;;;;;9.90;7.07;;;22.20;97.80;;;;;;4994001;28;20629;-73
2022/09/24 13:27:20;;;;;;;7.13;5.80;;;22.30;97.70;;;;;;4995252;28;20608;-73
2022/09/24 13:29:59;;;;;;;6.97;5.53;;;22.30;97.30;;;;;;4994838;28;20566;-73
2022/09/24 13:32:25;;;;;;;9.87;5.33;;;22.30;97.60;;;;;;4994941;28;20586;-74